Weather at Aeropuerto Internacional de Puerto Escondido

Public forecast

Using degrees Celsius for public forecast. Weather courtesy of forecast.io.

Current aviation weather report (METAR) for Aeropuerto Internacional de Puerto Escondido

2024/05/28 22:45 (retrieved 58 minutes ago)

MMPS 282245Z 34006KT 10SM SKC 32/25 A2984 RMK HZY

Aviation forecast (TAF) for Aeropuerto Internacional de Puerto Escondido

2024/05/28 18:15 (retrieved 5 hours ago)

TAF MMPS 281607Z 2818/2918 22010KT 6SM HZ SCT200 FM290400 24005KT 6SM HZ SCT200 FM291800 24010KT P6SM SCT200